sensor_id;sensor_type;location;lat;lon;timestamp;temperature;humidity
7234;DHT22;3658;47.992;10.158;2023-08-08T00:01:32;21.30;56.20
7234;DHT22;3658;47.992;10.158;2023-08-08T00:04:00;21.30;56.20
7234;DHT22;3658;47.992;10.158;2023-08-08T00:06:28;21.30;56.20
7234;DHT22;3658;47.992;10.158;2023-08-08T00:08:54;21.20;56.20
7234;DHT22;3658;47.992;10.158;2023-08-08T00:11:21;21.20;56.20
7234;DHT22;3658;47.992;10.158;2023-08-08T00:13:48;21.20;56.20
7234;DHT22;3658;47.992;10.158;2023-08-08T00:16:15;21.20;56.20
7234;DHT22;3658;47.992;10.158;2023-08-08T00:18:42;21.20;56.20
7234;DHT22;3658;47.992;10.158;2023-08-08T00:21:09;21.20;56.20
7234;DHT22;3658;47.992;10.158;2023-08-08T00:23:37;21.20;56.30
7234;DHT22;3658;47.992;10.158;2023-08-08T00:26:04;21.20;56.20
7234;DHT22;3658;47.992;10.158;2023-08-08T00:28:30;21.20;56.20
7234;DHT22;3658;47.992;10.158;2023-08-08T00:30:57;21.20;56.20
7234;DHT22;3658;47.992;10.158;2023-08-08T00:33:24;21.20;56.30
7234;DHT22;3658;47.992;10.158;2023-08-08T00:35:51;21.20;56.30
7234;DHT22;3658;47.992;10.158;2023-08-08T00:38:17;21.20;56.30
7234;DHT22;3658;47.992;10.158;2023-08-08T00:40:46;21.20;56.30
7234;DHT22;3658;47.992;10.158;2023-08-08T00:43:12;21.20;56.30
7234;DHT22;3658;47.992;10.158;2023-08-08T00:45:42;21.20;56.30
7234;DHT22;3658;47.992;10.158;2023-08-08T00:48:09;21.20;56.30
7234;DHT22;3658;47.992;10.158;2023-08-08T00:50:36;21.20;56.40
7234;DHT22;3658;47.992;10.158;2023-08-08T00:53:04;21.20;56.40
7234;DHT22;3658;47.992;10.158;2023-08-08T00:55:31;21.20;56.40
7234;DHT22;3658;47.992;10.158;2023-08-08T00:57:59;21.20;57.00
7234;DHT22;3658;47.992;10.158;2023-08-08T01:00:26;21.20;56.40
7234;DHT22;3658;47.992;10.158;2023-08-08T01:02:53;21.20;56.40
7234;DHT22;3658;47.992;10.158;2023-08-08T01:05:20;21.20;56.40
7234;DHT22;3658;47.992;10.158;2023-08-08T01:07:52;21.20;56.40
7234;DHT22;3658;47.992;10.158;2023-08-08T01:10:22;21.20;56.40
7234;DHT22;3658;47.992;10.158;2023-08-08T01:12:54;21.20;56.40
7234;DHT22;3658;47.992;10.158;2023-08-08T01:15:24;21.10;56.40
7234;DHT22;3658;47.992;10.158;2023-08-08T01:17:51;21.10;56.40
7234;DHT22;3658;47.992;10.158;2023-08-08T01:20:18;21.10;57.00
7234;DHT22;3658;47.992;10.158;2023-08-08T01:22:55;21.10;56.40
7234;DHT22;3658;47.992;10.158;2023-08-08T01:25:23;21.10;56.40
7234;DHT22;3658;47.992;10.158;2023-08-08T01:27:50;21.10;56.40
7234;DHT22;3658;47.992;10.158;2023-08-08T01:30:17;21.10;56.40
7234;DHT22;3658;47.992;10.158;2023-08-08T01:32:44;21.10;56.40
7234;DHT22;3658;47.992;10.158;2023-08-08T01:35:10;21.10;56.40
7234;DHT22;3658;47.992;10.158;2023-08-08T01:37:41;21.10;56.40
7234;DHT22;3658;47.992;10.158;2023-08-08T01:40:12;21.10;56.40
7234;DHT22;3658;47.992;10.158;2023-08-08T01:42:45;21.10;57.10
7234;DHT22;3658;47.992;10.158;2023-08-08T01:45:13;21.10;56.50
7234;DHT22;3658;47.992;10.158;2023-08-08T01:47:41;21.10;56.50
7234;DHT22;3658;47.992;10.158;2023-08-08T01:50:09;21.10;56.50
7234;DHT22;3658;47.992;10.158;2023-08-08T01:52:36;21.10;56.50
7234;DHT22;3658;47.992;10.158;2023-08-08T01:55:03;21.10;56.50
7234;DHT22;3658;47.992;10.158;2023-08-08T01:57:30;21.10;56.50
7234;DHT22;3658;47.992;10.158;2023-08-08T01:59:58;21.10;56.50
7234;DHT22;3658;47.992;10.158;2023-08-08T02:02:25;21.10;56.50
7234;DHT22;3658;47.992;10.158;2023-08-08T02:04:52;21.00;56.50
7234;DHT22;3658;47.992;10.158;2023-08-08T02:07:18;21.10;56.50
7234;DHT22;3658;47.992;10.158;2023-08-08T02:09:45;21.00;56.40
7234;DHT22;3658;47.992;10.158;2023-08-08T02:12:12;21.00;56.50
7234;DHT22;3658;47.992;10.158;2023-08-08T02:14:38;21.10;56.60
7234;DHT22;3658;47.992;10.158;2023-08-08T02:17:06;21.10;56.60
7234;DHT22;3658;47.992;10.158;2023-08-08T02:19:33;21.10;56.60
7234;DHT22;3658;47.992;10.158;2023-08-08T02:22:00;21.10;56.60
7234;DHT22;3658;47.992;10.158;2023-08-08T02:24:27;21.00;56.50
7234;DHT22;3658;47.992;10.158;2023-08-08T02:26:54;21.10;56.60
7234;DHT22;3658;47.992;10.158;2023-08-08T02:29:20;21.00;56.50
7234;DHT22;3658;47.992;10.158;2023-08-08T02:31:47;21.00;56.50
7234;DHT22;3658;47.992;10.158;2023-08-08T02:34:15;21.00;56.60
7234;DHT22;3658;47.992;10.158;2023-08-08T02:36:42;21.00;56.50
7234;DHT22;3658;47.992;10.158;2023-08-08T02:39:10;21.00;56.50
7234;DHT22;3658;47.992;10.158;2023-08-08T02:41:36;21.00;56.60
7234;DHT22;3658;47.992;10.158;2023-08-08T02:44:03;21.00;56.60
7234;DHT22;3658;47.992;10.158;2023-08-08T02:46:30;21.00;56.60
7234;DHT22;3658;47.992;10.158;2023-08-08T02:48:57;21.00;56.60
7234;DHT22;3658;47.992;10.158;2023-08-08T02:51:25;21.00;56.50
7234;DHT22;3658;47.992;10.158;2023-08-08T02:53:52;21.00;56.60
7234;DHT22;3658;47.992;10.158;2023-08-08T02:56:18;21.00;56.60
7234;DHT22;3658;47.992;10.158;2023-08-08T02:58:45;21.00;56.60
7234;DHT22;3658;47.992;10.158;2023-08-08T03:01:12;21.00;56.60
7234;DHT22;3658;47.992;10.158;2023-08-08T03:03:41;21.00;56.60
7234;DHT22;3658;47.992;10.158;2023-08-08T03:06:08;21.00;56.60
7234;DHT22;3658;47.992;10.158;2023-08-08T03:08:36;21.00;56.60
7234;DHT22;3658;47.992;10.158;2023-08-08T03:11:03;21.00;56.60
7234;DHT22;3658;47.992;10.158;2023-08-08T03:13:30;21.00;56.60
7234;DHT22;3658;47.992;10.158;2023-08-08T03:15:56;21.00;56.60
7234;DHT22;3658;47.992;10.158;2023-08-08T03:18:23;21.00;56.60
7234;DHT22;3658;47.992;10.158;2023-08-08T03:20:51;21.00;56.60
7234;DHT22;3658;47.992;10.158;2023-08-08T03:23:18;21.00;56.60
7234;DHT22;3658;47.992;10.158;2023-08-08T03:25:46;21.00;56.70
7234;DHT22;3658;47.992;10.158;2023-08-08T03:28:13;21.00;56.70
7234;DHT22;3658;47.992;10.158;2023-08-08T03:30:40;21.00;57.20
7234;DHT22;3658;47.992;10.158;2023-08-08T03:33:06;21.00;56.70
7234;DHT22;3658;47.992;10.158;2023-08-08T03:35:33;21.00;56.70
7234;DHT22;3658;47.992;10.158;2023-08-08T03:38:00;20.90;57.20
7234;DHT22;3658;47.992;10.158;2023-08-08T03:40:28;21.00;56.70
7234;DHT22;3658;47.992;10.158;2023-08-08T03:42:56;21.00;56.70
7234;DHT22;3658;47.992;10.158;2023-08-08T03:45:23;21.00;56.70
7234;DHT22;3658;47.992;10.158;2023-08-08T03:47:50;21.00;56.70
7234;DHT22;3658;47.992;10.158;2023-08-08T03:50:17;21.00;56.70
7234;DHT22;3658;47.992;10.158;2023-08-08T03:52:44;21.00;56.70
7234;DHT22;3658;47.992;10.158;2023-08-08T03:55:11;21.00;56.70
7234;DHT22;3658;47.992;10.158;2023-08-08T03:57:37;21.00;56.70
7234;DHT22;3658;47.992;10.158;2023-08-08T04:00:07;20.90;56.60
7234;DHT22;3658;47.992;10.158;2023-08-08T04:02:34;20.90;56.60
7234;DHT22;3658;47.992;10.158;2023-08-08T04:05:00;20.90;56.60
7234;DHT22;3658;47.992;10.158;2023-08-08T04:07:28;20.90;56.60
7234;DHT22;3658;47.992;10.158;2023-08-08T04:09:54;20.90;56.60
7234;DHT22;3658;47.992;10.158;2023-08-08T04:12:21;20.90;56.60
7234;DHT22;3658;47.992;10.158;2023-08-08T04:14:48;20.90;56.60
7234;DHT22;3658;47.992;10.158;2023-08-08T04:17:16;20.90;56.60
7234;DHT22;3658;47.992;10.158;2023-08-08T04:19:43;21.00;56.50
7234;DHT22;3658;47.992;10.158;2023-08-08T04:22:10;21.00;56.30
7234;DHT22;3658;47.992;10.158;2023-08-08T04:24:36;21.00;56.30
7234;DHT22;3658;47.992;10.158;2023-08-08T04:27:04;21.00;56.30
7234;DHT22;3658;47.992;10.158;2023-08-08T04:29:31;21.00;56.30
7234;DHT22;3658;47.992;10.158;2023-08-08T04:31:58;21.00;57.00
7234;DHT22;3658;47.992;10.158;2023-08-08T04:34:26;21.00;56.40
7234;DHT22;3658;47.992;10.158;2023-08-08T04:36:52;21.00;56.40
7234;DHT22;3658;47.992;10.158;2023-08-08T04:39:19;21.00;56.40
7234;DHT22;3658;47.992;10.158;2023-08-08T04:41:46;20.90;56.40
7234;DHT22;3658;47.992;10.158;2023-08-08T04:44:13;21.00;56.50
7234;DHT22;3658;47.992;10.158;2023-08-08T04:46:39;21.00;56.60
7234;DHT22;3658;47.992;10.158;2023-08-08T04:49:06;20.90;56.50
7234;DHT22;3658;47.992;10.158;2023-08-08T04:51:34;21.00;56.60
7234;DHT22;3658;47.992;10.158;2023-08-08T04:54:01;21.00;56.60
7234;DHT22;3658;47.992;10.158;2023-08-08T04:56:28;21.00;56.60
7234;DHT22;3658;47.992;10.158;2023-08-08T04:58:55;21.00;56.70
7234;DHT22;3658;47.992;10.158;2023-08-08T05:01:22;21.00;56.60
7234;DHT22;3658;47.992;10.158;2023-08-08T05:03:49;21.00;56.70
7234;DHT22;3658;47.992;10.158;2023-08-08T05:06:16;21.00;56.70
7234;DHT22;3658;47.992;10.158;2023-08-08T05:08:44;21.00;57.30
7234;DHT22;3658;47.992;10.158;2023-08-08T05:11:11;21.00;56.60
7234;DHT22;3658;47.992;10.158;2023-08-08T05:13:38;20.90;56.60
7234;DHT22;3658;47.992;10.158;2023-08-08T05:16:05;21.00;56.70
7234;DHT22;3658;47.992;10.158;2023-08-08T05:18:32;21.00;56.70
7234;DHT22;3658;47.992;10.158;2023-08-08T05:20:58;21.00;56.80
7234;DHT22;3658;47.992;10.158;2023-08-08T05:23:25;20.90;56.70
7234;DHT22;3658;47.992;10.158;2023-08-08T05:25:53;21.00;56.70
7234;DHT22;3658;47.992;10.158;2023-08-08T05:28:20;21.00;56.70
7234;DHT22;3658;47.992;10.158;2023-08-08T05:30:47;21.00;56.80
7234;DHT22;3658;47.992;10.158;2023-08-08T05:33:14;21.00;56.70
7234;DHT22;3658;47.992;10.158;2023-08-08T05:35:41;21.00;56.80
7234;DHT22;3658;47.992;10.158;2023-08-08T05:38:08;21.10;57.90
7234;DHT22;3658;47.992;10.158;2023-08-08T05:40:35;21.10;58.10
7234;DHT22;3658;47.992;10.158;2023-08-08T05:43:03;21.10;58.00
7234;DHT22;3658;47.992;10.158;2023-08-08T05:45:30;21.10;58.10
7234;DHT22;3658;47.992;10.158;2023-08-08T05:47:58;21.10;57.90
7234;DHT22;3658;47.992;10.158;2023-08-08T05:50:26;21.10;58.20
7234;DHT22;3658;47.992;10.158;2023-08-08T05:52:53;21.20;58.30
7234;DHT22;3658;47.992;10.158;2023-08-08T05:55:20;21.20;58.40
7234;DHT22;3658;47.992;10.158;2023-08-08T05:57:47;21.20;58.40
7234;DHT22;3658;47.992;10.158;2023-08-08T06:00:16;21.30;58.50
7234;DHT22;3658;47.992;10.158;2023-08-08T06:02:43;21.30;58.50
7234;DHT22;3658;47.992;10.158;2023-08-08T06:05:10;21.30;58.60
7234;DHT22;3658;47.992;10.158;2023-08-08T06:07:37;21.20;58.60
7234;DHT22;3658;47.992;10.158;2023-08-08T06:10:05;21.30;58.60
7234;DHT22;3658;47.992;10.158;2023-08-08T06:12:32;21.30;58.60
7234;DHT22;3658;47.992;10.158;2023-08-08T06:14:59;21.30;58.70
7234;DHT22;3658;47.992;10.158;2023-08-08T06:17:27;21.30;59.00
7234;DHT22;3658;47.992;10.158;2023-08-08T06:19:54;21.30;59.10
7234;DHT22;3658;47.992;10.158;2023-08-08T06:22:22;21.30;59.00
7234;DHT22;3658;47.992;10.158;2023-08-08T06:24:49;21.30;59.00
7234;DHT22;3658;47.992;10.158;2023-08-08T06:27:16;21.30;59.20
7234;DHT22;3658;47.992;10.158;2023-08-08T06:29:43;21.30;59.30
7234;DHT22;3658;47.992;10.158;2023-08-08T06:32:10;21.30;58.50
7234;DHT22;3658;47.992;10.158;2023-08-08T06:34:38;21.30;59.20
7234;DHT22;3658;47.992;10.158;2023-08-08T06:37:05;21.30;59.10
7234;DHT22;3658;47.992;10.158;2023-08-08T06:39:32;21.40;59.00
7234;DHT22;3658;47.992;10.158;2023-08-08T06:42:00;21.30;58.80
7234;DHT22;3658;47.992;10.158;2023-08-08T06:44:27;21.30;58.80
7234;DHT22;3658;47.992;10.158;2023-08-08T06:46:54;21.30;58.60
7234;DHT22;3658;47.992;10.158;2023-08-08T06:49:20;21.20;57.40
7234;DHT22;3658;47.992;10.158;2023-08-08T06:51:48;20.90;54.60
7234;DHT22;3658;47.992;10.158;2023-08-08T06:54:15;20.80;54.40
7234;DHT22;3658;47.992;10.158;2023-08-08T06:56:42;20.70;53.70
7234;DHT22;3658;47.992;10.158;2023-08-08T06:59:09;20.60;54.20
7234;DHT22;3658;47.992;10.158;2023-08-08T07:01:36;20.60;53.00
7234;DHT22;3658;47.992;10.158;2023-08-08T07:04:03;20.60;52.10
7234;DHT22;3658;47.992;10.158;2023-08-08T07:06:30;20.80;51.90
7234;DHT22;3658;47.992;10.158;2023-08-08T07:08:59;21.00;51.80
7234;DHT22;3658;47.992;10.158;2023-08-08T07:11:25;21.20;51.70
7234;DHT22;3658;47.992;10.158;2023-08-08T07:13:52;21.40;51.80
7234;DHT22;3658;47.992;10.158;2023-08-08T07:16:19;21.40;51.90
7234;DHT22;3658;47.992;10.158;2023-08-08T07:18:46;21.40;52.00
7234;DHT22;3658;47.992;10.158;2023-08-08T07:21:13;21.40;52.20
7234;DHT22;3658;47.992;10.158;2023-08-08T07:23:40;21.50;52.30
7234;DHT22;3658;47.992;10.158;2023-08-08T07:26:08;21.60;52.50
7234;DHT22;3658;47.992;10.158;2023-08-08T07:28:36;21.60;52.60
7234;DHT22;3658;47.992;10.158;2023-08-08T07:31:02;21.60;52.80
7234;DHT22;3658;47.992;10.158;2023-08-08T07:33:29;21.60;52.90
7234;DHT22;3658;47.992;10.158;2023-08-08T07:35:56;21.60;53.10
7234;DHT22;3658;47.992;10.158;2023-08-08T07:38:23;21.60;53.10
7234;DHT22;3658;47.992;10.158;2023-08-08T07:40:50;21.60;53.20
7234;DHT22;3658;47.992;10.158;2023-08-08T07:43:18;21.70;53.20
7234;DHT22;3658;47.992;10.158;2023-08-08T07:45:46;21.70;53.10
7234;DHT22;3658;47.992;10.158;2023-08-08T07:48:12;21.70;53.20
7234;DHT22;3658;47.992;10.158;2023-08-08T07:50:39;21.70;53.30
7234;DHT22;3658;47.992;10.158;2023-08-08T07:53:06;21.70;53.40
7234;DHT22;3658;47.992;10.158;2023-08-08T07:55:33;21.70;53.30
7234;DHT22;3658;47.992;10.158;2023-08-08T07:58:00;21.70;53.40
7234;DHT22;3658;47.992;10.158;2023-08-08T08:00:28;21.80;53.80
7234;DHT22;3658;47.992;10.158;2023-08-08T08:02:55;21.80;53.80
7234;DHT22;3658;47.992;10.158;2023-08-08T08:05:22;21.70;53.80
7234;DHT22;3658;47.992;10.158;2023-08-08T08:07:48;21.70;54.10
7234;DHT22;3658;47.992;10.158;2023-08-08T08:10:15;21.70;54.20
7234;DHT22;3658;47.992;10.158;2023-08-08T08:12:42;21.70;54.10
7234;DHT22;3658;47.992;10.158;2023-08-08T08:15:10;21.80;54.20
7234;DHT22;3658;47.992;10.158;2023-08-08T08:17:38;21.70;54.30
7234;DHT22;3658;47.992;10.158;2023-08-08T08:20:06;21.70;54.40
7234;DHT22;3658;47.992;10.158;2023-08-08T08:22:36;21.70;54.30
7234;DHT22;3658;47.992;10.158;2023-08-08T08:25:04;21.70;54.40
7234;DHT22;3658;47.992;10.158;2023-08-08T08:27:31;21.80;54.50
7234;DHT22;3658;47.992;10.158;2023-08-08T08:29:57;21.80;54.40
7234;DHT22;3658;47.992;10.158;2023-08-08T08:32:24;21.80;54.50
7234;DHT22;3658;47.992;10.158;2023-08-08T08:34:52;21.70;54.60
7234;DHT22;3658;47.992;10.158;2023-08-08T08:37:19;21.80;54.60
7234;DHT22;3658;47.992;10.158;2023-08-08T08:39:46;21.70;54.70
7234;DHT22;3658;47.992;10.158;2023-08-08T08:42:14;21.70;54.60
7234;DHT22;3658;47.992;10.158;2023-08-08T08:44:42;21.80;54.30
7234;DHT22;3658;47.992;10.158;2023-08-08T08:47:12;21.80;54.40
7234;DHT22;3658;47.992;10.158;2023-08-08T08:49:39;21.80;54.50
7234;DHT22;3658;47.992;10.158;2023-08-08T08:52:10;21.80;54.40
7234;DHT22;3658;47.992;10.158;2023-08-08T08:54:36;21.70;54.40
7234;DHT22;3658;47.992;10.158;2023-08-08T08:57:04;21.70;54.70
7234;DHT22;3658;47.992;10.158;2023-08-08T08:59:31;21.80;54.70
7234;DHT22;3658;47.992;10.158;2023-08-08T09:01:57;21.80;54.60
7234;DHT22;3658;47.992;10.158;2023-08-08T09:04:27;21.90;54.60
7234;DHT22;3658;47.992;10.158;2023-08-08T09:06:54;21.90;54.60
7234;DHT22;3658;47.992;10.158;2023-08-08T09:09:23;21.80;54.60
7234;DHT22;3658;47.992;10.158;2023-08-08T09:11:51;21.80;54.60
7234;DHT22;3658;47.992;10.158;2023-08-08T09:14:20;21.80;54.70
7234;DHT22;3658;47.992;10.158;2023-08-08T09:16:48;21.80;54.60
7234;DHT22;3658;47.992;10.158;2023-08-08T09:19:15;21.80;54.60
7234;DHT22;3658;47.992;10.158;2023-08-08T09:21:43;21.80;54.60
7234;DHT22;3658;47.992;10.158;2023-08-08T09:24:10;21.80;54.70
7234;DHT22;3658;47.992;10.158;2023-08-08T09:26:39;21.80;54.70
7234;DHT22;3658;47.992;10.158;2023-08-08T09:29:06;21.80;54.80
7234;DHT22;3658;47.992;10.158;2023-08-08T09:31:34;21.80;54.80
7234;DHT22;3658;47.992;10.158;2023-08-08T09:34:03;21.80;54.90
7234;DHT22;3658;47.992;10.158;2023-08-08T09:36:30;21.90;55.00
7234;DHT22;3658;47.992;10.158;2023-08-08T09:38:57;21.80;54.90
7234;DHT22;3658;47.992;10.158;2023-08-08T09:41:24;21.90;55.10
7234;DHT22;3658;47.992;10.158;2023-08-08T09:43:53;21.80;55.00
7234;DHT22;3658;47.992;10.158;2023-08-08T09:46:21;21.80;55.00
7234;DHT22;3658;47.992;10.158;2023-08-08T09:48:48;21.90;55.10
7234;DHT22;3658;47.992;10.158;2023-08-08T09:51:16;21.90;55.70
7234;DHT22;3658;47.992;10.158;2023-08-08T09:53:44;21.90;55.10
7234;DHT22;3658;47.992;10.158;2023-08-08T09:56:14;21.90;55.00
7234;DHT22;3658;47.992;10.158;2023-08-08T09:58:42;21.90;55.00
7234;DHT22;3658;47.992;10.158;2023-08-08T10:01:10;21.90;55.00
7234;DHT22;3658;47.992;10.158;2023-08-08T10:03:38;21.90;55.10
7234;DHT22;3658;47.992;10.158;2023-08-08T10:06:05;21.90;55.10
7234;DHT22;3658;47.992;10.158;2023-08-08T10:08:32;21.90;55.10
7234;DHT22;3658;47.992;10.158;2023-08-08T10:10:59;21.80;55.20
7234;DHT22;3658;47.992;10.158;2023-08-08T10:13:26;21.90;55.20
7234;DHT22;3658;47.992;10.158;2023-08-08T10:15:54;21.90;55.10
7234;DHT22;3658;47.992;10.158;2023-08-08T10:18:23;21.90;55.10
7234;DHT22;3658;47.992;10.158;2023-08-08T10:20:51;21.80;55.10
7234;DHT22;3658;47.992;10.158;2023-08-08T10:23:20;21.80;55.30
7234;DHT22;3658;47.992;10.158;2023-08-08T10:25:48;21.80;55.80
7234;DHT22;3658;47.992;10.158;2023-08-08T10:28:18;21.80;55.20
7234;DHT22;3658;47.992;10.158;2023-08-08T10:30:47;21.80;55.20
7234;DHT22;3658;47.992;10.158;2023-08-08T10:33:18;21.80;55.20
7234;DHT22;3658;47.992;10.158;2023-08-08T10:35:57;21.80;55.20
7234;DHT22;3658;47.992;10.158;2023-08-08T10:38:24;21.80;55.20
7234;DHT22;3658;47.992;10.158;2023-08-08T10:40:58;21.80;55.30
7234;DHT22;3658;47.992;10.158;2023-08-08T10:43:26;21.80;55.10
7234;DHT22;3658;47.992;10.158;2023-08-08T10:45:57;21.90;55.10
7234;DHT22;3658;47.992;10.158;2023-08-08T10:48:26;21.90;55.20
7234;DHT22;3658;47.992;10.158;2023-08-08T10:50:57;21.90;55.10
7234;DHT22;3658;47.992;10.158;2023-08-08T10:53:25;22.00;55.20
7234;DHT22;3658;47.992;10.158;2023-08-08T10:56:02;22.00;55.10
7234;DHT22;3658;47.992;10.158;2023-08-08T10:58:37;22.00;55.10
7234;DHT22;3658;47.992;10.158;2023-08-08T11:01:04;22.00;55.20
7234;DHT22;3658;47.992;10.158;2023-08-08T11:03:34;21.90;55.20
7234;DHT22;3658;47.992;10.158;2023-08-08T11:06:03;21.90;55.80
7234;DHT22;3658;47.992;10.158;2023-08-08T11:08:31;21.90;55.90
7234;DHT22;3658;47.992;10.158;2023-08-08T11:10:59;21.90;55.90
7234;DHT22;3658;47.992;10.158;2023-08-08T11:13:26;21.90;56.20
7234;DHT22;3658;47.992;10.158;2023-08-08T11:15:53;21.90;56.10
7234;DHT22;3658;47.992;10.158;2023-08-08T11:18:20;22.00;56.10
7234;DHT22;3658;47.992;10.158;2023-08-08T11:20:48;22.00;56.10
7234;DHT22;3658;47.992;10.158;2023-08-08T11:23:16;21.90;56.00
7234;DHT22;3658;47.992;10.158;2023-08-08T11:25:45;22.00;56.10
7234;DHT22;3658;47.992;10.158;2023-08-08T11:28:12;21.90;56.10
7234;DHT22;3658;47.992;10.158;2023-08-08T11:30:42;21.90;56.10
7234;DHT22;3658;47.992;10.158;2023-08-08T11:33:09;21.90;56.10
7234;DHT22;3658;47.992;10.158;2023-08-08T11:35:37;21.90;56.10
7234;DHT22;3658;47.992;10.158;2023-08-08T11:38:06;21.90;56.10
7234;DHT22;3658;47.992;10.158;2023-08-08T11:40:35;21.90;56.20
7234;DHT22;3658;47.992;10.158;2023-08-08T11:43:02;21.80;56.20
7234;DHT22;3658;47.992;10.158;2023-08-08T11:45:29;21.80;56.20
7234;DHT22;3658;47.992;10.158;2023-08-08T11:47:56;21.80;56.20
7234;DHT22;3658;47.992;10.158;2023-08-08T11:50:24;21.80;56.20
7234;DHT22;3658;47.992;10.158;2023-08-08T11:52:54;21.80;56.20
7234;DHT22;3658;47.992;10.158;2023-08-08T11:55:21;21.80;56.20
7234;DHT22;3658;47.992;10.158;2023-08-08T11:57:55;21.80;56.20
7234;DHT22;3658;47.992;10.158;2023-08-08T12:00:27;21.80;56.40
7234;DHT22;3658;47.992;10.158;2023-08-08T12:02:55;21.80;56.40
7234;DHT22;3658;47.992;10.158;2023-08-08T12:05:22;22.00;56.50
7234;DHT22;3658;47.992;10.158;2023-08-08T12:07:50;22.00;56.50
7234;DHT22;3658;47.992;10.158;2023-08-08T12:10:19;22.00;56.50
7234;DHT22;3658;47.992;10.158;2023-08-08T12:12:47;22.10;56.40
7234;DHT22;3658;47.992;10.158;2023-08-08T12:15:20;22.10;56.30
7234;DHT22;3658;47.992;10.158;2023-08-08T12:17:47;22.10;56.90
7234;DHT22;3658;47.992;10.158;2023-08-08T12:20:15;22.10;56.30
7234;DHT22;3658;47.992;10.158;2023-08-08T12:22:42;22.10;56.30
7234;DHT22;3658;47.992;10.158;2023-08-08T12:25:09;22.10;56.30
7234;DHT22;3658;47.992;10.158;2023-08-08T12:27:35;22.10;56.30
7234;DHT22;3658;47.992;10.158;2023-08-08T12:30:05;22.10;56.20
7234;DHT22;3658;47.992;10.158;2023-08-08T12:32:33;22.10;56.30
7234;DHT22;3658;47.992;10.158;2023-08-08T12:35:00;22.10;56.20
7234;DHT22;3658;47.992;10.158;2023-08-08T12:37:27;22.10;56.20
7234;DHT22;3658;47.992;10.158;2023-08-08T12:39:53;22.20;56.20
7234;DHT22;3658;47.992;10.158;2023-08-08T12:42:20;22.20;56.10
7234;DHT22;3658;47.992;10.158;2023-08-08T12:44:47;22.20;56.00
7234;DHT22;3658;47.992;10.158;2023-08-08T12:47:17;22.20;56.00
7234;DHT22;3658;47.992;10.158;2023-08-08T12:49:45;22.20;56.20
7234;DHT22;3658;47.992;10.158;2023-08-08T12:52:13;22.20;55.90
7234;DHT22;3658;47.992;10.158;2023-08-08T12:54:40;22.20;55.90
7234;DHT22;3658;47.992;10.158;2023-08-08T12:57:06;22.10;56.00
7234;DHT22;3658;47.992;10.158;2023-08-08T12:59:34;22.10;56.10
7234;DHT22;3658;47.992;10.158;2023-08-08T13:02:01;22.10;56.20
7234;DHT22;3658;47.992;10.158;2023-08-08T13:04:28;22.10;56.50
7234;DHT22;3658;47.992;10.158;2023-08-08T13:06:57;22.00;56.50
7234;DHT22;3658;47.992;10.158;2023-08-08T13:09:24;22.00;56.50
7234;DHT22;3658;47.992;10.158;2023-08-08T13:11:51;22.00;56.50
7234;DHT22;3658;47.992;10.158;2023-08-08T13:14:17;22.00;56.50
7234;DHT22;3658;47.992;10.158;2023-08-08T13:16:44;22.00;56.50
7234;DHT22;3658;47.992;10.158;2023-08-08T13:19:11;22.00;56.60
7234;DHT22;3658;47.992;10.158;2023-08-08T13:21:38;22.00;56.70
7234;DHT22;3658;47.992;10.158;2023-08-08T13:24:07;22.00;56.80
7234;DHT22;3658;47.992;10.158;2023-08-08T13:26:35;22.00;56.70
7234;DHT22;3658;47.992;10.158;2023-08-08T13:29:02;22.00;56.80
7234;DHT22;3658;47.992;10.158;2023-08-08T13:31:29;22.00;56.90
7234;DHT22;3658;47.992;10.158;2023-08-08T13:33:56;22.00;56.90
7234;DHT22;3658;47.992;10.158;2023-08-08T13:36:22;21.90;56.80
7234;DHT22;3658;47.992;10.158;2023-08-08T13:38:49;22.00;56.90
7234;DHT22;3658;47.992;10.158;2023-08-08T13:41:17;22.00;57.20
7234;DHT22;3658;47.992;10.158;2023-08-08T13:43:44;22.00;57.10
7234;DHT22;3658;47.992;10.158;2023-08-08T13:46:11;22.00;57.00
7234;DHT22;3658;47.992;10.158;2023-08-08T13:48:37;22.00;57.10
7234;DHT22;3658;47.992;10.158;2023-08-08T13:51:04;22.00;57.00
7234;DHT22;3658;47.992;10.158;2023-08-08T13:53:31;22.00;57.00
7234;DHT22;3658;47.992;10.158;2023-08-08T13:55:58;22.00;56.90
7234;DHT22;3658;47.992;10.158;2023-08-08T13:58:26;22.00;56.90
7234;DHT22;3658;47.992;10.158;2023-08-08T14:00:54;22.00;56.90
7234;DHT22;3658;47.992;10.158;2023-08-08T14:03:21;22.00;57.00
7234;DHT22;3658;47.992;10.158;2023-08-08T14:05:49;21.90;56.90
7234;DHT22;3658;47.992;10.158;2023-08-08T14:08:17;22.00;57.00
7234;DHT22;3658;47.992;10.158;2023-08-08T14:10:44;21.90;57.20
7234;DHT22;3658;47.992;10.158;2023-08-08T14:13:11;22.00;57.20
7234;DHT22;3658;47.992;10.158;2023-08-08T14:15:39;22.00;57.30
7234;DHT22;3658;47.992;10.158;2023-08-08T14:18:06;22.00;57.30
7234;DHT22;3658;47.992;10.158;2023-08-08T14:20:33;22.00;57.20
7234;DHT22;3658;47.992;10.158;2023-08-08T14:23:00;22.00;57.20
7234;DHT22;3658;47.992;10.158;2023-08-08T14:25:27;22.00;57.20
7234;DHT22;3658;47.992;10.158;2023-08-08T14:27:55;22.00;57.40
7234;DHT22;3658;47.992;10.158;2023-08-08T14:30:23;22.00;57.20
7234;DHT22;3658;47.992;10.158;2023-08-08T14:32:52;22.00;57.30
7234;DHT22;3658;47.992;10.158;2023-08-08T14:35:19;22.00;57.20
7234;DHT22;3658;47.992;10.158;2023-08-08T14:37:46;22.00;57.10
7234;DHT22;3658;47.992;10.158;2023-08-08T14:40:13;22.00;57.00
7234;DHT22;3658;47.992;10.158;2023-08-08T14:42:39;22.00;57.10
7234;DHT22;3658;47.992;10.158;2023-08-08T14:45:07;21.90;56.90
7234;DHT22;3658;47.992;10.158;2023-08-08T14:47:34;22.00;57.00
7234;DHT22;3658;47.992;10.158;2023-08-08T14:50:02;22.00;56.90
7234;DHT22;3658;47.992;10.158;2023-08-08T14:52:29;22.00;56.80
7234;DHT22;3658;47.992;10.158;2023-08-08T14:54:56;22.00;56.90
7234;DHT22;3658;47.992;10.158;2023-08-08T14:57:23;22.00;56.90
7234;DHT22;3658;47.992;10.158;2023-08-08T14:59:50;21.90;57.00
7234;DHT22;3658;47.992;10.158;2023-08-08T15:02:17;22.00;57.10
7234;DHT22;3658;47.992;10.158;2023-08-08T15:04:44;22.00;57.00
7234;DHT22;3658;47.992;10.158;2023-08-08T15:07:12;22.00;56.90
7234;DHT22;3658;47.992;10.158;2023-08-08T15:09:39;22.10;57.20
7234;DHT22;3658;47.992;10.158;2023-08-08T15:12:06;22.10;57.00
7234;DHT22;3658;47.992;10.158;2023-08-08T15:14:33;22.10;57.00
7234;DHT22;3658;47.992;10.158;2023-08-08T15:17:00;22.10;57.00
7234;DHT22;3658;47.992;10.158;2023-08-08T15:19:26;22.10;57.10
7234;DHT22;3658;47.992;10.158;2023-08-08T15:21:54;22.10;57.00
7234;DHT22;3658;47.992;10.158;2023-08-08T15:24:22;22.10;57.00
7234;DHT22;3658;47.992;10.158;2023-08-08T15:26:49;22.10;57.10
7234;DHT22;3658;47.992;10.158;2023-08-08T15:29:16;22.10;57.00
7234;DHT22;3658;47.992;10.158;2023-08-08T15:31:42;22.10;56.80
7234;DHT22;3658;47.992;10.158;2023-08-08T15:34:09;22.10;56.90
7234;DHT22;3658;47.992;10.158;2023-08-08T15:36:36;22.10;57.00
7234;DHT22;3658;47.992;10.158;2023-08-08T15:39:03;22.10;57.00
7234;DHT22;3658;47.992;10.158;2023-08-08T15:41:31;22.10;56.80
7234;DHT22;3658;47.992;10.158;2023-08-08T15:43:58;22.00;56.80
7234;DHT22;3658;47.992;10.158;2023-08-08T15:46:25;22.00;56.80